sensor_id;sensor_type;location;lat;lon;timestamp;P1;durP1;ratioP1;P2;durP2;ratioP2
80293;SDS011;69594;43.516;1.498;2023-04-26T00:02:10;5.30;;;3.28;;
80293;SDS011;69594;43.516;1.498;2023-04-26T00:04:39;6.03;;;2.88;;
80293;SDS011;69594;43.516;1.498;2023-04-26T00:07:05;5.80;;;3.17;;
80293;SDS011;69594;43.516;1.498;2023-04-26T00:09:31;4.30;;;2.72;;
80293;SDS011;69594;43.516;1.498;2023-04-26T00:11:57;5.38;;;2.47;;
80293;SDS011;69594;43.516;1.498;2023-04-26T00:14:22;5.53;;;3.33;;
80293;SDS011;69594;43.516;1.498;2023-04-26T00:16:48;5.10;;;3.30;;
80293;SDS011;69594;43.516;1.498;2023-04-26T00:19:13;4.17;;;2.60;;
80293;SDS011;69594;43.516;1.498;2023-04-26T00:21:40;5.63;;;2.67;;
80293;SDS011;69594;43.516;1.498;2023-04-26T00:24:05;4.68;;;2.35;;
80293;SDS011;69594;43.516;1.498;2023-04-26T00:26:31;4.03;;;2.53;;
80293;SDS011;69594;43.516;1.498;2023-04-26T00:28:58;5.45;;;2.42;;
80293;SDS011;69594;43.516;1.498;2023-04-26T00:31:23;3.60;;;2.23;;
80293;SDS011;69594;43.516;1.498;2023-04-26T00:33:49;5.20;;;2.47;;
80293;SDS011;69594;43.516;1.498;2023-04-26T00:36:15;4.60;;;2.75;;
80293;SDS011;69594;43.516;1.498;2023-04-26T00:38:43;3.30;;;2.30;;
80293;SDS011;69594;43.516;1.498;2023-04-26T00:41:09;3.53;;;1.65;;
80293;SDS011;69594;43.516;1.498;2023-04-26T00:43:35;4.57;;;2.40;;
80293;SDS011;69594;43.516;1.498;2023-04-26T00:46:00;4.47;;;2.50;;
80293;SDS011;69594;43.516;1.498;2023-04-26T00:48:26;4.27;;;2.00;;
80293;SDS011;69594;43.516;1.498;2023-04-26T00:50:52;3.27;;;2.07;;
80293;SDS011;69594;43.516;1.498;2023-04-26T00:53:17;3.17;;;1.85;;
80293;SDS011;69594;43.516;1.498;2023-04-26T00:55:42;4.37;;;2.67;;
80293;SDS011;69594;43.516;1.498;2023-04-26T00:58:09;5.75;;;2.13;;
80293;SDS011;69594;43.516;1.498;2023-04-26T01:00:35;3.25;;;2.05;;
80293;SDS011;69594;43.516;1.498;2023-04-26T01:03:01;3.40;;;2.40;;
80293;SDS011;69594;43.516;1.498;2023-04-26T01:05:27;4.95;;;3.17;;
80293;SDS011;69594;43.516;1.498;2023-04-26T01:07:52;8.57;;;3.83;;
80293;SDS011;69594;43.516;1.498;2023-04-26T01:10:18;7.35;;;3.95;;
80293;SDS011;69594;43.516;1.498;2023-04-26T01:12:44;6.83;;;3.33;;
80293;SDS011;69594;43.516;1.498;2023-04-26T01:15:10;8.03;;;4.43;;
80293;SDS011;69594;43.516;1.498;2023-04-26T01:17:36;6.47;;;3.60;;
80293;SDS011;69594;43.516;1.498;2023-04-26T01:20:03;8.85;;;3.75;;
80293;SDS011;69594;43.516;1.498;2023-04-26T01:22:32;5.38;;;3.40;;
80293;SDS011;69594;43.516;1.498;2023-04-26T01:24:58;5.07;;;3.30;;
80293;SDS011;69594;43.516;1.498;2023-04-26T01:27:25;6.20;;;3.40;;
80293;SDS011;69594;43.516;1.498;2023-04-26T01:29:51;7.13;;;3.35;;
80293;SDS011;69594;43.516;1.498;2023-04-26T01:32:16;7.40;;;3.63;;
80293;SDS011;69594;43.516;1.498;2023-04-26T01:34:42;4.50;;;3.23;;
80293;SDS011;69594;43.516;1.498;2023-04-26T01:37:07;4.55;;;2.72;;
80293;SDS011;69594;43.516;1.498;2023-04-26T01:39:33;4.70;;;3.13;;
80293;SDS011;69594;43.516;1.498;2023-04-26T01:42:00;4.93;;;3.20;;
80293;SDS011;69594;43.516;1.498;2023-04-26T01:44:26;5.00;;;3.30;;
80293;SDS011;69594;43.516;1.498;2023-04-26T01:46:52;7.00;;;3.80;;
80293;SDS011;69594;43.516;1.498;2023-04-26T01:49:17;4.80;;;3.30;;
80293;SDS011;69594;43.516;1.498;2023-04-26T01:51:43;4.63;;;3.20;;
80293;SDS011;69594;43.516;1.498;2023-04-26T01:54:08;6.83;;;3.40;;
80293;SDS011;69594;43.516;1.498;2023-04-26T01:56:34;8.17;;;3.70;;
80293;SDS011;69594;43.516;1.498;2023-04-26T01:58:59;6.43;;;3.57;;
80293;SDS011;69594;43.516;1.498;2023-04-26T02:01:24;7.03;;;4.53;;
80293;SDS011;69594;43.516;1.498;2023-04-26T02:03:50;6.68;;;3.70;;
80293;SDS011;69594;43.516;1.498;2023-04-26T02:06:16;5.27;;;3.03;;
80293;SDS011;69594;43.516;1.498;2023-04-26T02:08:41;5.03;;;3.53;;
80293;SDS011;69594;43.516;1.498;2023-04-26T02:11:07;5.93;;;3.40;;
80293;SDS011;69594;43.516;1.498;2023-04-26T02:13:32;5.93;;;3.60;;
80293;SDS011;69594;43.516;1.498;2023-04-26T02:15:58;5.93;;;3.97;;
80293;SDS011;69594;43.516;1.498;2023-04-26T02:18:24;6.80;;;3.70;;
80293;SDS011;69594;43.516;1.498;2023-04-26T02:20:50;5.15;;;3.40;;
80293;SDS011;69594;43.516;1.498;2023-04-26T02:23:16;5.80;;;2.80;;
80293;SDS011;69594;43.516;1.498;2023-04-26T02:25:41;5.20;;;3.03;;
80293;SDS011;69594;43.516;1.498;2023-04-26T02:28:10;4.30;;;2.70;;
80293;SDS011;69594;43.516;1.498;2023-04-26T02:30:35;4.80;;;3.00;;
80293;SDS011;69594;43.516;1.498;2023-04-26T02:33:01;5.53;;;3.42;;
80293;SDS011;69594;43.516;1.498;2023-04-26T02:35:27;4.37;;;2.93;;
80293;SDS011;69594;43.516;1.498;2023-04-26T02:37:52;5.93;;;2.80;;
80293;SDS011;69594;43.516;1.498;2023-04-26T02:40:18;5.07;;;3.10;;
80293;SDS011;69594;43.516;1.498;2023-04-26T02:42:44;4.88;;;2.97;;
80293;SDS011;69594;43.516;1.498;2023-04-26T02:45:10;3.90;;;2.50;;
80293;SDS011;69594;43.516;1.498;2023-04-26T02:47:35;4.32;;;2.83;;
80293;SDS011;69594;43.516;1.498;2023-04-26T02:50:02;7.00;;;2.90;;
80293;SDS011;69594;43.516;1.498;2023-04-26T02:52:34;5.43;;;2.87;;
80293;SDS011;69594;43.516;1.498;2023-04-26T02:55:01;6.80;;;3.60;;
80293;SDS011;69594;43.516;1.498;2023-04-26T02:57:28;9.27;;;4.63;;
80293;SDS011;69594;43.516;1.498;2023-04-26T02:59:55;8.25;;;4.70;;
80293;SDS011;69594;43.516;1.498;2023-04-26T03:02:21;7.93;;;4.70;;
80293;SDS011;69594;43.516;1.498;2023-04-26T03:04:46;7.28;;;4.53;;
80293;SDS011;69594;43.516;1.498;2023-04-26T03:07:12;8.43;;;4.60;;
80293;SDS011;69594;43.516;1.498;2023-04-26T03:09:37;10.53;;;6.17;;
80293;SDS011;69594;43.516;1.498;2023-04-26T03:12:05;9.30;;;5.60;;
80293;SDS011;69594;43.516;1.498;2023-04-26T03:14:31;9.82;;;5.80;;
80293;SDS011;69594;43.516;1.498;2023-04-26T03:16:57;11.13;;;5.67;;
80293;SDS011;69594;43.516;1.498;2023-04-26T03:19:23;10.75;;;5.80;;
80293;SDS011;69594;43.516;1.498;2023-04-26T03:21:49;10.03;;;5.97;;
80293;SDS011;69594;43.516;1.498;2023-04-26T03:24:14;12.27;;;6.60;;
80293;SDS011;69594;43.516;1.498;2023-04-26T03:26:41;11.23;;;6.30;;
80293;SDS011;69594;43.516;1.498;2023-04-26T03:29:07;11.93;;;5.97;;
80293;SDS011;69594;43.516;1.498;2023-04-26T03:31:33;12.57;;;7.13;;
80293;SDS011;69594;43.516;1.498;2023-04-26T03:33:58;10.43;;;6.37;;
80293;SDS011;69594;43.516;1.498;2023-04-26T03:36:27;11.20;;;6.83;;
80293;SDS011;69594;43.516;1.498;2023-04-26T03:38:53;11.13;;;6.47;;
80293;SDS011;69594;43.516;1.498;2023-04-26T03:41:20;11.35;;;6.65;;
80293;SDS011;69594;43.516;1.498;2023-04-26T03:43:46;13.70;;;6.32;;
80293;SDS011;69594;43.516;1.498;2023-04-26T03:46:12;11.90;;;6.10;;
80293;SDS011;69594;43.516;1.498;2023-04-26T03:48:37;9.53;;;6.10;;
80293;SDS011;69594;43.516;1.498;2023-04-26T03:51:04;11.40;;;6.10;;
80293;SDS011;69594;43.516;1.498;2023-04-26T03:53:30;11.48;;;6.70;;
80293;SDS011;69594;43.516;1.498;2023-04-26T03:55:56;9.27;;;5.70;;
80293;SDS011;69594;43.516;1.498;2023-04-26T03:58:22;11.43;;;5.80;;
80293;SDS011;69594;43.516;1.498;2023-04-26T04:00:49;10.75;;;6.35;;
80293;SDS011;69594;43.516;1.498;2023-04-26T04:03:14;10.23;;;5.73;;
80293;SDS011;69594;43.516;1.498;2023-04-26T04:05:40;9.00;;;5.53;;
80293;SDS011;69594;43.516;1.498;2023-04-26T04:08:05;10.13;;;5.78;;
80293;SDS011;69594;43.516;1.498;2023-04-26T04:10:31;8.07;;;4.80;;
80293;SDS011;69594;43.516;1.498;2023-04-26T04:12:56;8.50;;;5.37;;
80293;SDS011;69594;43.516;1.498;2023-04-26T04:15:21;10.68;;;4.80;;
80293;SDS011;69594;43.516;1.498;2023-04-26T04:17:47;10.93;;;5.80;;
80293;SDS011;69594;43.516;1.498;2023-04-26T04:20:12;9.53;;;5.10;;
80293;SDS011;69594;43.516;1.498;2023-04-26T04:22:38;7.77;;;5.10;;
80293;SDS011;69594;43.516;1.498;2023-04-26T04:25:07;9.23;;;5.57;;
80293;SDS011;69594;43.516;1.498;2023-04-26T04:27:34;10.38;;;5.82;;
80293;SDS011;69594;43.516;1.498;2023-04-26T04:30:01;10.90;;;5.23;;
80293;SDS011;69594;43.516;1.498;2023-04-26T04:32:28;10.15;;;5.55;;
80293;SDS011;69594;43.516;1.498;2023-04-26T04:34:56;10.48;;;5.13;;
80293;SDS011;69594;43.516;1.498;2023-04-26T04:37:22;9.20;;;5.97;;
80293;SDS011;69594;43.516;1.498;2023-04-26T04:39:52;9.32;;;5.22;;
80293;SDS011;69594;43.516;1.498;2023-04-26T04:42:18;9.83;;;5.67;;
80293;SDS011;69594;43.516;1.498;2023-04-26T04:44:44;7.93;;;4.97;;
80293;SDS011;69594;43.516;1.498;2023-04-26T04:47:14;10.00;;;5.93;;
80293;SDS011;69594;43.516;1.498;2023-04-26T04:49:39;11.18;;;5.88;;
80293;SDS011;69594;43.516;1.498;2023-04-26T04:52:05;10.17;;;6.07;;
80293;SDS011;69594;43.516;1.498;2023-04-26T04:54:31;9.10;;;5.07;;
80293;SDS011;69594;43.516;1.498;2023-04-26T04:56:57;9.13;;;5.60;;
80293;SDS011;69594;43.516;1.498;2023-04-26T04:59:22;10.18;;;5.90;;
80293;SDS011;69594;43.516;1.498;2023-04-26T05:01:49;9.13;;;6.03;;
80293;SDS011;69594;43.516;1.498;2023-04-26T05:04:15;11.17;;;6.47;;
80293;SDS011;69594;43.516;1.498;2023-04-26T05:06:40;8.63;;;5.68;;
80293;SDS011;69594;43.516;1.498;2023-04-26T05:09:07;9.80;;;5.97;;
80293;SDS011;69594;43.516;1.498;2023-04-26T05:11:33;11.65;;;6.53;;
80293;SDS011;69594;43.516;1.498;2023-04-26T05:13:59;11.90;;;6.20;;
80293;SDS011;69594;43.516;1.498;2023-04-26T05:16:24;11.27;;;6.07;;
80293;SDS011;69594;43.516;1.498;2023-04-26T05:18:51;10.20;;;5.87;;
80293;SDS011;69594;43.516;1.498;2023-04-26T05:21:17;12.60;;;6.25;;
80293;SDS011;69594;43.516;1.498;2023-04-26T05:23:43;12.33;;;7.03;;
80293;SDS011;69594;43.516;1.498;2023-04-26T05:26:13;11.00;;;6.40;;
80293;SDS011;69594;43.516;1.498;2023-04-26T05:28:39;10.57;;;6.70;;
80293;SDS011;69594;43.516;1.498;2023-04-26T05:31:05;10.60;;;6.68;;
80293;SDS011;69594;43.516;1.498;2023-04-26T05:33:31;12.50;;;7.10;;
80293;SDS011;69594;43.516;1.498;2023-04-26T05:35:56;11.47;;;6.17;;
80293;SDS011;69594;43.516;1.498;2023-04-26T05:38:22;9.65;;;6.30;;
80293;SDS011;69594;43.516;1.498;2023-04-26T05:40:48;10.70;;;6.63;;
80293;SDS011;69594;43.516;1.498;2023-04-26T05:43:13;11.27;;;6.25;;
80293;SDS011;69594;43.516;1.498;2023-04-26T05:45:39;12.63;;;6.90;;
80293;SDS011;69594;43.516;1.498;2023-04-26T05:48:05;10.00;;;6.30;;
80293;SDS011;69594;43.516;1.498;2023-04-26T05:50:31;9.90;;;6.13;;
80293;SDS011;69594;43.516;1.498;2023-04-26T05:52:56;9.82;;;6.30;;
80293;SDS011;69594;43.516;1.498;2023-04-26T05:55:22;12.23;;;5.70;;
80293;SDS011;69594;43.516;1.498;2023-04-26T05:57:47;9.80;;;4.90;;
80293;SDS011;69594;43.516;1.498;2023-04-26T06:00:13;8.65;;;5.25;;
80293;SDS011;69594;43.516;1.498;2023-04-26T06:02:39;9.10;;;5.93;;
80293;SDS011;69594;43.516;1.498;2023-04-26T06:05:05;12.40;;;5.80;;
80293;SDS011;69594;43.516;1.498;2023-04-26T06:07:31;8.00;;;4.82;;
80293;SDS011;69594;43.516;1.498;2023-04-26T06:09:57;11.13;;;6.00;;
80293;SDS011;69594;43.516;1.498;2023-04-26T06:12:22;9.87;;;5.57;;
80293;SDS011;69594;43.516;1.498;2023-04-26T06:14:47;9.48;;;5.22;;
80293;SDS011;69594;43.516;1.498;2023-04-26T06:17:13;7.87;;;5.50;;
80293;SDS011;69594;43.516;1.498;2023-04-26T06:19:38;7.13;;;4.50;;
80293;SDS011;69594;43.516;1.498;2023-04-26T06:22:04;9.47;;;6.13;;
80293;SDS011;69594;43.516;1.498;2023-04-26T06:24:29;7.07;;;4.53;;
80293;SDS011;69594;43.516;1.498;2023-04-26T06:26:56;8.53;;;4.97;;
80293;SDS011;69594;43.516;1.498;2023-04-26T06:29:21;7.85;;;5.18;;
80293;SDS011;69594;43.516;1.498;2023-04-26T06:31:47;7.13;;;4.97;;
80293;SDS011;69594;43.516;1.498;2023-04-26T06:34:12;7.83;;;4.80;;
80293;SDS011;69594;43.516;1.498;2023-04-26T06:36:37;7.53;;;4.90;;
80293;SDS011;69594;43.516;1.498;2023-04-26T06:39:03;7.20;;;4.47;;
80293;SDS011;69594;43.516;1.498;2023-04-26T06:41:28;9.40;;;4.93;;
80293;SDS011;69594;43.516;1.498;2023-04-26T06:43:54;8.03;;;5.20;;
80293;SDS011;69594;43.516;1.498;2023-04-26T06:46:21;8.18;;;4.90;;
80293;SDS011;69594;43.516;1.498;2023-04-26T06:48:46;8.30;;;4.30;;
80293;SDS011;69594;43.516;1.498;2023-04-26T06:51:11;7.20;;;4.37;;
80293;SDS011;69594;43.516;1.498;2023-04-26T06:53:37;5.70;;;4.00;;
80293;SDS011;69594;43.516;1.498;2023-04-26T06:56:02;6.17;;;4.20;;
80293;SDS011;69594;43.516;1.498;2023-04-26T06:58:28;5.82;;;3.60;;
80293;SDS011;69594;43.516;1.498;2023-04-26T07:00:53;6.50;;;4.00;;
80293;SDS011;69594;43.516;1.498;2023-04-26T07:03:18;5.93;;;3.57;;
80293;SDS011;69594;43.516;1.498;2023-04-26T07:05:44;4.77;;;2.97;;
80293;SDS011;69594;43.516;1.498;2023-04-26T07:08:10;6.47;;;3.73;;
80293;SDS011;69594;43.516;1.498;2023-04-26T07:10:36;5.65;;;4.10;;
80293;SDS011;69594;43.516;1.498;2023-04-26T07:13:04;5.50;;;3.17;;
80293;SDS011;69594;43.516;1.498;2023-04-26T07:15:29;4.55;;;3.30;;
80293;SDS011;69594;43.516;1.498;2023-04-26T07:17:56;5.80;;;3.20;;
80293;SDS011;69594;43.516;1.498;2023-04-26T07:20:23;4.38;;;2.50;;
80293;SDS011;69594;43.516;1.498;2023-04-26T07:22:49;3.97;;;2.67;;
80293;SDS011;69594;43.516;1.498;2023-04-26T07:25:15;3.15;;;2.20;;
80293;SDS011;69594;43.516;1.498;2023-04-26T07:27:41;4.77;;;2.60;;
80293;SDS011;69594;43.516;1.498;2023-04-26T07:30:07;3.50;;;2.40;;
80293;SDS011;69594;43.516;1.498;2023-04-26T07:32:34;5.72;;;2.97;;
80293;SDS011;69594;43.516;1.498;2023-04-26T07:35:00;5.17;;;2.93;;
80293;SDS011;69594;43.516;1.498;2023-04-26T07:37:28;4.32;;;3.10;;
80293;SDS011;69594;43.516;1.498;2023-04-26T07:39:53;4.33;;;2.90;;
80293;SDS011;69594;43.516;1.498;2023-04-26T07:42:19;6.13;;;3.33;;
80293;SDS011;69594;43.516;1.498;2023-04-26T07:44:46;4.20;;;2.80;;
80293;SDS011;69594;43.516;1.498;2023-04-26T07:47:12;5.03;;;3.10;;
80293;SDS011;69594;43.516;1.498;2023-04-26T07:49:38;4.10;;;2.67;;
80293;SDS011;69594;43.516;1.498;2023-04-26T07:52:04;4.07;;;2.78;;
80293;SDS011;69594;43.516;1.498;2023-04-26T07:54:29;3.70;;;3.30;;
80293;SDS011;69594;43.516;1.498;2023-04-26T07:56:55;3.95;;;2.55;;
80293;SDS011;69594;43.516;1.498;2023-04-26T07:59:21;4.50;;;2.93;;
80293;SDS011;69594;43.516;1.498;2023-04-26T08:01:46;5.55;;;3.05;;
80293;SDS011;69594;43.516;1.498;2023-04-26T08:04:12;5.37;;;2.83;;
80293;SDS011;69594;43.516;1.498;2023-04-26T08:06:37;4.13;;;2.60;;
80293;SDS011;69594;43.516;1.498;2023-04-26T08:09:03;3.90;;;2.30;;
80293;SDS011;69594;43.516;1.498;2023-04-26T08:11:29;4.13;;;3.07;;
80293;SDS011;69594;43.516;1.498;2023-04-26T08:13:56;4.43;;;2.63;;
80293;SDS011;69594;43.516;1.498;2023-04-26T08:16:21;5.20;;;2.57;;
80293;SDS011;69594;43.516;1.498;2023-04-26T08:18:46;4.53;;;2.58;;
80293;SDS011;69594;43.516;1.498;2023-04-26T08:21:12;3.37;;;2.23;;
80293;SDS011;69594;43.516;1.498;2023-04-26T08:23:37;3.47;;;2.33;;
80293;SDS011;69594;43.516;1.498;2023-04-26T08:26:03;3.77;;;2.43;;
80293;SDS011;69594;43.516;1.498;2023-04-26T08:28:28;2.93;;;2.27;;
80293;SDS011;69594;43.516;1.498;2023-04-26T08:30:57;4.00;;;2.43;;
80293;SDS011;69594;43.516;1.498;2023-04-26T08:33:25;2.85;;;2.25;;
80293;SDS011;69594;43.516;1.498;2023-04-26T08:35:51;2.40;;;2.20;;
80293;SDS011;69594;43.516;1.498;2023-04-26T08:38:16;2.97;;;2.10;;
80293;SDS011;69594;43.516;1.498;2023-04-26T08:40:42;3.22;;;2.10;;
80293;SDS011;69594;43.516;1.498;2023-04-26T08:43:11;3.55;;;2.10;;
80293;SDS011;69594;43.516;1.498;2023-04-26T08:45:39;4.70;;;2.10;;
80293;SDS011;69594;43.516;1.498;2023-04-26T08:48:05;2.30;;;1.85;;
80293;SDS011;69594;43.516;1.498;2023-04-26T08:50:38;3.30;;;2.30;;
80293;SDS011;69594;43.516;1.498;2023-04-26T08:53:05;3.42;;;2.40;;
80293;SDS011;69594;43.516;1.498;2023-04-26T08:55:32;3.45;;;2.17;;
80293;SDS011;69594;43.516;1.498;2023-04-26T08:57:59;3.37;;;2.40;;
80293;SDS011;69594;43.516;1.498;2023-04-26T09:00:26;4.50;;;2.80;;
80293;SDS011;69594;43.516;1.498;2023-04-26T09:02:52;3.33;;;2.30;;
80293;SDS011;69594;43.516;1.498;2023-04-26T09:05:18;3.80;;;2.50;;
80293;SDS011;69594;43.516;1.498;2023-04-26T09:07:53;3.38;;;2.20;;
80293;SDS011;69594;43.516;1.498;2023-04-26T09:10:21;4.88;;;2.15;;
80293;SDS011;69594;43.516;1.498;2023-04-26T09:12:53;3.97;;;2.63;;
80293;SDS011;69594;43.516;1.498;2023-04-26T09:15:19;3.65;;;2.28;;
80293;SDS011;69594;43.516;1.498;2023-04-26T09:17:46;3.90;;;2.65;;
80293;SDS011;69594;43.516;1.498;2023-04-26T09:20:24;4.47;;;3.22;;
80293;SDS011;69594;43.516;1.498;2023-04-26T09:23:12;6.40;;;4.30;;
80293;SDS011;69594;43.516;1.498;2023-04-26T09:25:37;4.38;;;2.70;;
80293;SDS011;69594;43.516;1.498;2023-04-26T09:28:03;2.70;;;1.77;;
80293;SDS011;69594;43.516;1.498;2023-04-26T09:30:42;4.13;;;2.45;;
80293;SDS011;69594;43.516;1.498;2023-04-26T09:33:07;7.03;;;4.07;;
80293;SDS011;69594;43.516;1.498;2023-04-26T09:38:09;2.85;;;2.33;;
80293;SDS011;69594;43.516;1.498;2023-04-26T09:40:48;4.17;;;2.70;;
80293;SDS011;69594;43.516;1.498;2023-04-26T09:43:15;3.70;;;2.60;;
80293;SDS011;69594;43.516;1.498;2023-04-26T09:45:44;3.38;;;2.50;;
80293;SDS011;69594;43.516;1.498;2023-04-26T09:50:47;3.22;;;2.58;;
80293;SDS011;69594;43.516;1.498;2023-04-26T09:53:46;3.20;;;2.47;;
80293;SDS011;69594;43.516;1.498;2023-04-26T09:56:17;5.18;;;2.70;;
80293;SDS011;69594;43.516;1.498;2023-04-26T09:58:58;5.05;;;2.65;;
80293;SDS011;69594;43.516;1.498;2023-04-26T10:01:25;3.72;;;2.20;;
80293;SDS011;69594;43.516;1.498;2023-04-26T10:04:01;5.35;;;2.90;;
80293;SDS011;69594;43.516;1.498;2023-04-26T10:06:28;3.00;;;2.43;;
80293;SDS011;69594;43.516;1.498;2023-04-26T10:08:54;3.50;;;2.30;;
80293;SDS011;69594;43.516;1.498;2023-04-26T10:11:20;5.60;;;3.08;;
80293;SDS011;69594;43.516;1.498;2023-04-26T10:13:46;4.53;;;3.03;;
80293;SDS011;69594;43.516;1.498;2023-04-26T10:16:15;4.85;;;3.08;;
80293;SDS011;69594;43.516;1.498;2023-04-26T10:18:41;4.53;;;2.50;;
80293;SDS011;69594;43.516;1.498;2023-04-26T10:21:19;4.80;;;2.60;;
80293;SDS011;69594;43.516;1.498;2023-04-26T10:23:48;3.35;;;2.63;;
80293;SDS011;69594;43.516;1.498;2023-04-26T10:29:16;2.97;;;2.30;;
80293;SDS011;69594;43.516;1.498;2023-04-26T10:34:26;2.90;;;2.25;;
80293;SDS011;69594;43.516;1.498;2023-04-26T10:37:05;3.75;;;1.90;;
80293;SDS011;69594;43.516;1.498;2023-04-26T10:39:39;5.85;;;2.42;;
80293;SDS011;69594;43.516;1.498;2023-04-26T10:42:20;3.15;;;2.10;;
80293;SDS011;69594;43.516;1.498;2023-04-26T10:44:50;5.00;;;2.03;;
80293;SDS011;69594;43.516;1.498;2023-04-26T10:47:25;2.58;;;1.80;;
80293;SDS011;69594;43.516;1.498;2023-04-26T10:52:29;2.38;;;1.55;;
80293;SDS011;69594;43.516;1.498;2023-04-26T10:54:56;2.63;;;1.83;;
80293;SDS011;69594;43.516;1.498;2023-04-26T10:57:48;2.60;;;1.80;;
80293;SDS011;69594;43.516;1.498;2023-04-26T11:00:17;2.90;;;1.80;;
80293;SDS011;69594;43.516;1.498;2023-04-26T11:02:58;3.92;;;1.77;;
80293;SDS011;69594;43.516;1.498;2023-04-26T11:05:31;4.20;;;2.10;;
80293;SDS011;69594;43.516;1.498;2023-04-26T11:08:07;3.00;;;2.17;;
80293;SDS011;69594;43.516;1.498;2023-04-26T11:10:39;2.35;;;1.60;;
80293;SDS011;69594;43.516;1.498;2023-04-26T11:13:05;2.45;;;1.73;;
80293;SDS011;69594;43.516;1.498;2023-04-26T11:15:32;1.73;;;1.27;;
80293;SDS011;69594;43.516;1.498;2023-04-26T11:18:00;2.10;;;1.60;;
80293;SDS011;69594;43.516;1.498;2023-04-26T11:20:28;2.97;;;1.80;;
80293;SDS011;69594;43.516;1.498;2023-04-26T11:22:55;3.70;;;1.92;;
80293;SDS011;69594;43.516;1.498;2023-04-26T11:25:21;3.83;;;2.00;;
80293;SDS011;69594;43.516;1.498;2023-04-26T11:27:49;2.40;;;1.73;;
80293;SDS011;69594;43.516;1.498;2023-04-26T11:30:17;2.97;;;1.87;;
80293;SDS011;69594;43.516;1.498;2023-04-26T11:32:46;2.83;;;1.65;;
80293;SDS011;69594;43.516;1.498;2023-04-26T11:35:12;2.10;;;1.60;;
80293;SDS011;69594;43.516;1.498;2023-04-26T11:37:39;3.80;;;2.00;;
80293;SDS011;69594;43.516;1.498;2023-04-26T11:40:04;3.53;;;1.90;;
80293;SDS011;69594;43.516;1.498;2023-04-26T11:42:31;2.45;;;1.83;;
80293;SDS011;69594;43.516;1.498;2023-04-26T11:44:57;2.13;;;1.67;;
80293;SDS011;69594;43.516;1.498;2023-04-26T11:47:23;2.25;;;1.80;;
80293;SDS011;69594;43.516;1.498;2023-04-26T11:49:50;2.80;;;1.30;;
80293;SDS011;69594;43.516;1.498;2023-04-26T11:52:16;2.00;;;1.40;;
80293;SDS011;69594;43.516;1.498;2023-04-26T11:54:42;1.65;;;1.50;;
80293;SDS011;69594;43.516;1.498;2023-04-26T11:57:14;2.87;;;1.70;;
80293;SDS011;69594;43.516;1.498;2023-04-26T11:59:40;3.17;;;2.10;;
80293;SDS011;69594;43.516;1.498;2023-04-26T12:02:06;2.70;;;1.60;;
80293;SDS011;69594;43.516;1.498;2023-04-26T12:04:32;1.10;;;1.00;;
80293;SDS011;69594;43.516;1.498;2023-04-26T12:06:58;1.50;;;1.40;;
80293;SDS011;69594;43.516;1.498;2023-04-26T12:09:26;3.93;;;1.10;;
80293;SDS011;69594;43.516;1.498;2023-04-26T12:12:00;0.90;;;0.80;;
80293;SDS011;69594;43.516;1.498;2023-04-26T12:14:32;0.95;;;0.85;;
80293;SDS011;69594;43.516;1.498;2023-04-26T12:17:01;1.45;;;1.20;;
80293;SDS011;69594;43.516;1.498;2023-04-26T12:19:34;2.20;;;1.10;;
80293;SDS011;69594;43.516;1.498;2023-04-26T12:22:02;1.23;;;1.05;;
80293;SDS011;69594;43.516;1.498;2023-04-26T12:24:29;1.98;;;1.40;;
80293;SDS011;69594;43.516;1.498;2023-04-26T12:26:58;2.13;;;1.60;;
80293;SDS011;69594;43.516;1.498;2023-04-26T12:29:24;2.08;;;1.50;;
80293;SDS011;69594;43.516;1.498;2023-04-26T12:31:51;2.70;;;1.30;;
80293;SDS011;69594;43.516;1.498;2023-04-26T12:34:18;4.40;;;1.27;;
80293;SDS011;69594;43.516;1.498;2023-04-26T12:36:43;3.50;;;1.13;;
80293;SDS011;69594;43.516;1.498;2023-04-26T12:39:09;2.08;;;1.10;;
80293;SDS011;69594;43.516;1.498;2023-04-26T12:41:37;2.60;;;1.33;;
80293;SDS011;69594;43.516;1.498;2023-04-26T12:44:03;1.67;;;1.30;;
80293;SDS011;69594;43.516;1.498;2023-04-26T12:46:29;2.05;;;1.45;;
80293;SDS011;69594;43.516;1.498;2023-04-26T12:48:55;1.87;;;1.27;;
80293;SDS011;69594;43.516;1.498;2023-04-26T12:51:20;1.63;;;1.30;;
80293;SDS011;69594;43.516;1.498;2023-04-26T12:53:46;2.63;;;1.20;;
80293;SDS011;69594;43.516;1.498;2023-04-26T12:56:11;3.47;;;1.17;;
80293;SDS011;69594;43.516;1.498;2023-04-26T12:58:37;1.63;;;1.23;;
80293;SDS011;69594;43.516;1.498;2023-04-26T13:01:02;1.47;;;1.07;;
80293;SDS011;69594;43.516;1.498;2023-04-26T13:03:28;1.13;;;1.03;;
80293;SDS011;69594;43.516;1.498;2023-04-26T13:05:53;1.20;;;1.10;;
80293;SDS011;69594;43.516;1.498;2023-04-26T13:08:18;1.37;;;1.00;;
80293;SDS011;69594;43.516;1.498;2023-04-26T13:10:44;1.50;;;1.00;;
80293;SDS011;69594;43.516;1.498;2023-04-26T13:13:09;1.45;;;0.82;;
80293;SDS011;69594;43.516;1.498;2023-04-26T13:15:34;2.63;;;1.07;;
80293;SDS011;69594;43.516;1.498;2023-04-26T13:18:00;1.17;;;0.80;;
80293;SDS011;69594;43.516;1.498;2023-04-26T13:20:26;0.90;;;0.90;;
80293;SDS011;69594;43.516;1.498;2023-04-26T13:22:51;1.17;;;0.80;;
80293;SDS011;69594;43.516;1.498;2023-04-26T13:25:17;3.70;;;1.20;;
80293;SDS011;69594;43.516;1.498;2023-04-26T13:27:43;3.97;;;1.63;;
80293;SDS011;69594;43.516;1.498;2023-04-26T13:30:09;5.38;;;1.73;;
80293;SDS011;69594;43.516;1.498;2023-04-26T13:32:35;2.25;;;1.10;;
80293;SDS011;69594;43.516;1.498;2023-04-26T13:35:01;1.57;;;1.20;;
80293;SDS011;69594;43.516;1.498;2023-04-26T13:37:27;1.73;;;1.10;;
80293;SDS011;69594;43.516;1.498;2023-04-26T13:39:52;2.90;;;1.40;;
80293;SDS011;69594;43.516;1.498;2023-04-26T13:42:19;2.28;;;1.02;;
80293;SDS011;69594;43.516;1.498;2023-04-26T13:44:45;1.77;;;1.10;;
80293;SDS011;69594;43.516;1.498;2023-04-26T13:47:11;3.05;;;1.10;;
80293;SDS011;69594;43.516;1.498;2023-04-26T13:49:37;2.30;;;1.30;;
80293;SDS011;69594;43.516;1.498;2023-04-26T13:52:05;3.92;;;1.38;;
80293;SDS011;69594;43.516;1.498;2023-04-26T13:54:30;4.20;;;1.40;;
80293;SDS011;69594;43.516;1.498;2023-04-26T13:56:56;3.80;;;1.33;;
80293;SDS011;69594;43.516;1.498;2023-04-26T13:59:22;2.17;;;1.17;;
80293;SDS011;69594;43.516;1.498;2023-04-26T14:01:47;1.10;;;1.00;;
80293;SDS011;69594;43.516;1.498;2023-04-26T14:04:13;1.57;;;1.00;;
80293;SDS011;69594;43.516;1.498;2023-04-26T14:06:38;1.38;;;1.20;;
80293;SDS011;69594;43.516;1.498;2023-04-26T14:09:04;1.80;;;1.13;;
80293;SDS011;69594;43.516;1.498;2023-04-26T14:11:32;2.15;;;1.30;;
80293;SDS011;69594;43.516;1.498;2023-04-26T14:13:58;2.83;;;1.10;;
80293;SDS011;69594;43.516;1.498;2023-04-26T14:16:24;1.55;;;1.40;;
80293;SDS011;69594;43.516;1.498;2023-04-26T14:18:50;2.83;;;0.95;;
80293;SDS011;69594;43.516;1.498;2023-04-26T14:21:19;2.50;;;1.30;;
80293;SDS011;69594;43.516;1.498;2023-04-26T14:23:45;1.75;;;0.95;;
80293;SDS011;69594;43.516;1.498;2023-04-26T14:26:10;4.83;;;1.30;;
80293;SDS011;69594;43.516;1.498;2023-04-26T14:28:36;0.80;;;0.80;;
80293;SDS011;69594;43.516;1.498;2023-04-26T14:31:02;1.25;;;0.73;;
80293;SDS011;69594;43.516;1.498;2023-04-26T14:33:28;1.00;;;0.87;;
80293;SDS011;69594;43.516;1.498;2023-04-26T14:35:53;1.23;;;1.00;;
80293;SDS011;69594;43.516;1.498;2023-04-26T14:38:19;0.75;;;0.70;;
80293;SDS011;69594;43.516;1.498;2023-04-26T14:40:45;2.45;;;1.08;;
80293;SDS011;69594;43.516;1.498;2023-04-26T14:43:10;1.30;;;1.20;;
80293;SDS011;69594;43.516;1.498;2023-04-26T14:45:36;1.10;;;1.00;;
80293;SDS011;69594;43.516;1.498;2023-04-26T14:48:06;1.70;;;0.93;;
80293;SDS011;69594;43.516;1.498;2023-04-26T14:50:31;1.35;;;0.85;;
80293;SDS011;69594;43.516;1.498;2023-04-26T14:52:56;1.77;;;0.80;;
80293;SDS011;69594;43.516;1.498;2023-04-26T14:55:22;2.73;;;1.10;;
80293;SDS011;69594;43.516;1.498;2023-04-26T14:57:48;2.00;;;0.93;;